»·PEaware :: WAT380 KLAS-KSAN

WAT380 :: KLAS-KSAN

FLIGHT INFORMATION

Flight Status: Arrived
Operator:
Walker Air Transport
More flights by this operator :: More flights under this callsign
Pilot: Spencer M. (27733)
Aircraft: SOCATA TBM-900
(TBM9)
More flights by this aircraft type
Origin: KLAS McCarran Intl
United States
Destination: KSAN San Diego Intl-Lindbergh
United States
More flights between these airports :: More routes between these airports
Route: +V538 GFS V514 CANNO V66 MZB
File this flight plan on PilotEdge
Remarks:
Altitude:
(Current/Filed)
25,000ft
Speed:
(Current/Filed)
260kts
Departed: 21-Oct-20 07:29 PM
Arrived: 21-Oct-20 08:32 PM
Distance/Time
Traveled:
225nm/1:03
Distance/Time
To Go:
Arrived

Flight Plot

Page will automatically refresh every two minutes.

Flight plan parsing failed; only flown route is shown


Map Options




Map Legend


Flown Route
Filed Route
Departure Airport
Arrival Airport
Navaid (VOR, NDB)
Fix

Horizontal Profiles

Position Reports

Time Latitude Longitude Heading Altitude Ground
Speed
21-Oct-20 18:53 36.082068 -115.170506 0 2184ft 0kts
21-Oct-20 18:54 36.082068 -115.170506 0 2184ft 0kts
21-Oct-20 18:55 36.082068 -115.170506 0 2184ft 0kts
21-Oct-20 18:56 36.082068 -115.170506 0 2184ft 0kts
21-Oct-20 18:57 36.082068 -115.170506 0 2184ft 0kts
21-Oct-20 18:58 36.082068 -115.170506 0 2184ft 0kts
21-Oct-20 18:59 36.082068 -115.170506 0 2184ft 0kts
21-Oct-20 19:00 36.082068 -115.170506 0 2184ft 0kts
21-Oct-20 19:01 36.082068 -115.170506 0 2184ft 0kts
21-Oct-20 19:02 36.082068 -115.170506 0 2184ft 0kts
21-Oct-20 19:03 36.082068 -115.170506 0 2184ft 0kts
21-Oct-20 19:04 36.082068 -115.170506 0 2184ft 0kts
21-Oct-20 19:05 36.082068 -115.170506 0 2184ft 0kts
21-Oct-20 19:06 36.082068 -115.170506 0 2184ft 0kts
21-Oct-20 19:07 36.082068 -115.170506 0 2184ft 0kts
21-Oct-20 19:08 36.082068 -115.170506 0 2184ft 0kts
21-Oct-20 19:09 36.082068 -115.170506 0 2184ft 0kts
21-Oct-20 19:10 36.082068 -115.170506 0 2184ft 0kts
21-Oct-20 19:11 36.082068 -115.170506 0 2184ft 0kts
21-Oct-20 19:12 36.082068 -115.170506 0 2184ft 0kts
21-Oct-20 19:13 36.082068 -115.170506 0 2184ft 0kts
21-Oct-20 19:14 36.082068 -115.170506 0 2184ft 0kts
21-Oct-20 19:15 36.082068 -115.170506 0 2184ft 0kts
21-Oct-20 19:16 36.082068 -115.170506 0 2184ft 0kts
21-Oct-20 19:17 36.082068 -115.170506 0 2184ft 0kts
21-Oct-20 19:18 36.082068 -115.170506 0 2184ft 0kts
21-Oct-20 19:19 36.082068 -115.170506 0 2184ft 0kts
21-Oct-20 19:20 36.082068 -115.170506 0 2184ft 0kts
21-Oct-20 19:21 36.082423 -115.169461 45 2184ft 9kts
21-Oct-20 19:22 36.086112 -115.166604 34 2184ft 13kts
21-Oct-20 19:23 36.090668 -115.163989 24 2184ft 23kts
21-Oct-20 19:24 36.097228 -115.160243 23 2184ft 26kts
21-Oct-20 19:25 36.099851 -115.157525 94 2184ft 0kts
21-Oct-20 19:26 36.099851 -115.157525 94 2184ft 0kts
21-Oct-20 19:27 36.098565 -115.156880 210 2184ft 20kts
21-Oct-20 19:28 36.069175 -115.174050 209 2733ft 172kts
21-Oct-20 19:29 36.022237 -115.197753 201 4391ft 189kts
21-Oct-20 19:30 35.971658 -115.217108 181 5995ft 195kts
21-Oct-20 19:31 35.917622 -115.217635 181 7594ft 194kts
21-Oct-20 19:32 35.862490 -115.217257 181 9214ft 204kts
21-Oct-20 19:33 35.804644 -115.214382 180 10656ft 213kts
21-Oct-20 19:34 35.745865 -115.211035 181 11976ft 211kts
21-Oct-20 19:35 35.687428 -115.207738 181 13262ft 210kts
21-Oct-20 19:36 35.627593 -115.204369 181 14579ft 221kts
21-Oct-20 19:37 35.565480 -115.200852 181 15882ft 225kts
21-Oct-20 19:38 35.503135 -115.197328 181 17167ft 225kts
21-Oct-20 19:39 35.440919 -115.193821 181 18449ft 223kts
21-Oct-20 19:40 35.379058 -115.190348 181 19736ft 226kts
21-Oct-20 19:41 35.314324 -115.186719 181 21060ft 239kts
21-Oct-20 19:42 35.246853 -115.182932 181 22371ft 247kts
21-Oct-20 19:43 35.177714 -115.179054 181 23667ft 252kts
21-Oct-20 19:44 35.105636 -115.187609 203 23958ft 275kts
21-Oct-20 19:45 35.031557 -115.220507 202 23946ft 288kts
21-Oct-20 19:46 34.955548 -115.254068 202 23944ft 294kts
21-Oct-20 19:47 34.877802 -115.288329 202 23945ft 301kts
21-Oct-20 19:48 34.798339 -115.323249 202 23978ft 304kts
21-Oct-20 19:50 34.718914 -115.358094 202 23977ft 299kts
21-Oct-20 19:51 34.641722 -115.391901 202 24015ft 292kts
21-Oct-20 19:52 34.565349 -115.425283 202 24071ft 292kts
21-Oct-20 19:53 34.488682 -115.458724 202 24090ft 293kts
21-Oct-20 19:54 34.411993 -115.492108 202 24090ft 294kts
21-Oct-20 19:55 34.334907 -115.525602 202 24056ft 295kts
21-Oct-20 19:56 34.273492 -115.588576 225 23998ft 290kts
21-Oct-20 19:57 34.214679 -115.654851 224 23999ft 289kts
21-Oct-20 19:58 34.155707 -115.721131 224 24001ft 289kts
21-Oct-20 19:59 34.094415 -115.784408 216 24004ft 291kts
21-Oct-20 20:00 34.027293 -115.838776 216 23959ft 291kts
21-Oct-20 20:01 33.960122 -115.893111 216 23957ft 288kts
21-Oct-20 20:02 33.893689 -115.946753 216 23987ft 286kts
21-Oct-20 20:03 33.827098 -116.000426 216 23991ft 290kts
21-Oct-20 20:04 33.760028 -116.054373 216 23990ft 291kts
21-Oct-20 20:05 33.692628 -116.108484 216 23973ft 292kts
21-Oct-20 20:05 33.636545 -116.153418 215 22972ft 284kts
21-Oct-20 20:07 33.562821 -116.217529 218 21324ft 275kts
21-Oct-20 20:07 33.512477 -116.261688 218 20042ft 269kts
21-Oct-20 20:09 33.442275 -116.323142 217 18013ft 264kts
21-Oct-20 20:09 33.393413 -116.365845 217 16756ft 260kts
21-Oct-20 20:10 33.335471 -116.416400 217 15248ft 253kts
21-Oct-20 20:11 33.279523 -116.465141 217 13800ft 246kts
21-Oct-20 20:12 33.224225 -116.513237 216 12401ft 245kts
21-Oct-20 20:13 33.169932 -116.560379 216 12134ft 241kts
21-Oct-20 20:14 33.108990 -116.589238 185 12158ft 244kts
21-Oct-20 20:15 33.039609 -116.596401 185 11176ft 246kts
21-Oct-20 20:16 32.975082 -116.603082 186 9841ft 223kts
21-Oct-20 20:17 32.913387 -116.609488 186 8534ft 220kts
21-Oct-20 20:18 32.869924 -116.643721 229 7855ft 176kts
21-Oct-20 20:19 32.837394 -116.686386 228 6738ft 174kts
21-Oct-20 20:20 32.804160 -116.729593 227 5662ft 183kts
21-Oct-20 20:21 32.768539 -116.775829 227 4986ft 195kts
21-Oct-20 20:22 32.733275 -116.821529 228 4973ft 178kts
21-Oct-20 20:23 32.699706 -116.864999 228 4975ft 168kts
21-Oct-20 20:24 32.677794 -116.915149 251 4059ft 173kts
21-Oct-20 20:25 32.680579 -116.972244 286 3575ft 166kts
21-Oct-20 20:26 32.695001 -117.031089 285 2675ft 171kts
21-Oct-20 20:27 32.707227 -117.081385 285 1983ft 133kts
21-Oct-20 20:28 32.716339 -117.118709 282 1297ft 84kts
21-Oct-20 20:29 32.722979 -117.146721 283 785ft 92kts
21-Oct-20 20:30 32.729926 -117.174851 282 147ft 82kts
21-Oct-20 20:31 32.732456 -117.188863 246 20ft 6kts
21-Oct-20 20:32 32.731307 -117.191256 203 20ft 7kts
21-Oct-20 20:33 32.731113 -117.190759 32 20ft 0kts
21-Oct-20 20:34 32.731113 -117.190759 32 20ft 0kts
21-Oct-20 20:35 32.731113 -117.190759 32 20ft 0kts
21-Oct-20 20:36 32.731113 -117.190759 32 20ft 0kts
21-Oct-20 20:37 32.731113 -117.190759 32 20ft 0kts
21-Oct-20 20:38 32.731113 -117.190759 32 20ft 0kts

Navigation Log

Ident Type
Flight plan parsing failed, navigation log unavailable